createdAt,value
2018-06-22T00:01:23.990Z,3.10
2018-06-22T00:06:28.029Z,2.83
2018-06-22T00:11:32.070Z,2.73
2018-06-22T00:16:35.907Z,2.70
2018-06-22T00:21:39.929Z,2.83
2018-06-22T00:26:43.772Z,2.40
2018-06-22T00:31:47.594Z,2.70
2018-06-22T00:36:51.428Z,2.20
2018-06-22T00:41:55.212Z,2.90
2018-06-22T00:46:59.064Z,3.30
2018-06-22T00:52:02.876Z,2.77
2018-06-22T00:57:06.969Z,2.60
2018-06-22T01:02:10.793Z,2.20
2018-06-22T01:07:14.674Z,2.63
2018-06-22T01:12:18.520Z,2.60
2018-06-22T01:17:22.385Z,2.30
2018-06-22T01:22:26.500Z,2.30
2018-06-22T01:27:30.328Z,2.70
2018-06-22T01:32:34.414Z,2.50
2018-06-22T01:37:38.303Z,2.23
2018-06-22T01:42:42.168Z,2.47
2018-06-22T01:47:46.047Z,2.83
2018-06-22T01:52:50.154Z,2.67
2018-06-22T01:57:53.994Z,2.53
2018-06-22T02:02:58.085Z,2.80
2018-06-22T02:08:01.906Z,3.40
2018-06-22T02:13:05.737Z,2.50
2018-06-22T02:18:09.579Z,2.50
2018-06-22T02:23:13.437Z,2.73
2018-06-22T02:28:17.301Z,2.45
2018-06-22T02:33:21.130Z,2.47
2018-06-22T02:38:25.009Z,2.10
2018-06-22T02:43:28.849Z,2.23
2018-06-22T02:48:32.731Z,2.67
2018-06-22T02:53:36.541Z,2.17
2018-06-22T02:58:40.410Z,2.53
2018-06-22T03:03:44.866Z,2.30
2018-06-22T03:08:48.702Z,2.53
2018-06-22T03:13:52.536Z,2.40
2018-06-22T03:18:56.645Z,2.47
2018-06-22T03:24:01.599Z,2.40
2018-06-22T03:29:05.438Z,2.03
2018-06-22T03:34:09.315Z,2.07
2018-06-22T03:39:13.137Z,2.47
2018-06-22T03:44:16.977Z,2.47
2018-06-22T03:49:20.826Z,2.53
2018-06-22T03:54:24.949Z,2.40
2018-06-22T03:59:28.846Z,2.50
2018-06-22T04:04:32.693Z,2.60
2018-06-22T04:09:36.600Z,2.13
2018-06-22T04:14:40.425Z,2.77
2018-06-22T04:19:44.572Z,2.10
2018-06-22T04:24:48.670Z,3.27
2018-06-22T04:29:52.645Z,2.37
2018-06-22T04:34:56.501Z,2.13
2018-06-22T04:40:00.625Z,2.30
2018-06-22T04:45:04.818Z,2.10
2018-06-22T04:50:08.972Z,2.50
2018-06-22T04:55:12.816Z,2.30
2018-06-22T05:00:16.673Z,2.27
2018-06-22T05:05:20.661Z,2.50
2018-06-22T05:10:24.741Z,2.73
2018-06-22T05:15:28.572Z,2.80
2018-06-22T05:20:32.663Z,2.13
2018-06-22T05:25:36.792Z,2.53
2018-06-22T05:30:40.865Z,2.60
2018-06-22T05:35:44.716Z,2.33
2018-06-22T05:40:48.866Z,2.43
2018-06-22T05:45:52.677Z,2.30
2018-06-22T05:50:56.518Z,2.10
2018-06-22T05:56:00.605Z,2.40
2018-06-22T06:01:04.444Z,2.07
2018-06-22T06:06:08.290Z,2.10
2018-06-22T06:11:12.182Z,2.20
2018-06-22T06:16:15.953Z,2.20
2018-06-22T06:21:19.836Z,2.10
2018-06-22T06:26:23.675Z,2.33
2018-06-22T06:31:27.497Z,2.40
2018-06-22T06:36:31.324Z,2.20
2018-06-22T06:41:35.411Z,2.53
2018-06-22T06:46:39.257Z,2.87
2018-06-22T06:51:43.099Z,2.93
2018-06-22T06:56:46.969Z,2.43
2018-06-22T07:01:50.768Z,2.70
2018-06-22T07:06:54.589Z,2.50
2018-06-22T07:11:58.508Z,2.80
2018-06-22T07:17:02.362Z,2.57
2018-06-22T07:22:06.238Z,3.23
2018-06-22T07:27:10.073Z,2.77
2018-06-22T07:32:14.638Z,2.43
2018-06-22T07:37:18.726Z,2.92
2018-06-22T07:42:22.581Z,3.10
2018-06-22T07:47:26.413Z,2.80
2018-06-22T07:52:30.241Z,3.33
2018-06-22T07:57:34.348Z,3.37
2018-06-22T08:02:38.190Z,3.40
2018-06-22T08:07:42.008Z,3.53
2018-06-22T08:12:46.173Z,2.87
2018-06-22T08:17:50.072Z,3.17
2018-06-22T08:22:53.899Z,3.33
2018-06-22T08:27:57.970Z,2.90
2018-06-22T08:33:01.837Z,3.02
2018-06-22T08:38:06.163Z,3.12
2018-06-22T08:43:10.010Z,2.83
2018-06-22T08:48:13.832Z,3.43
2018-06-22T08:53:17.666Z,3.12
2018-06-22T08:58:21.494Z,3.33
2018-06-22T09:03:25.332Z,3.33
2018-06-22T09:08:29.205Z,3.43
2018-06-22T09:13:33.045Z,3.47
2018-06-22T09:18:36.860Z,3.70
2018-06-22T09:23:40.680Z,3.53
2018-06-22T09:28:44.752Z,3.60
2018-06-22T09:33:48.591Z,3.30
2018-06-22T09:38:52.686Z,3.43
2018-06-22T09:43:56.805Z,3.13
2018-06-22T09:49:00.634Z,4.07
2018-06-22T09:54:04.686Z,3.77
2018-06-22T09:59:08.484Z,3.33
2018-06-22T10:04:12.297Z,3.23
2018-06-22T10:09:16.118Z,3.00
2018-06-22T10:14:19.930Z,3.50
2018-06-22T10:19:23.982Z,3.43
2018-06-22T10:24:27.785Z,2.75
2018-06-22T10:29:31.601Z,3.55
2018-06-22T10:34:35.433Z,3.60
2018-06-22T10:39:40.253Z,4.60
2018-06-22T10:44:44.104Z,4.17
2018-06-22T10:49:48.014Z,3.57
2018-06-22T10:54:51.836Z,3.87
2018-06-22T10:59:55.901Z,3.47
2018-06-22T11:04:59.692Z,3.90
2018-06-22T11:10:03.537Z,3.87
2018-06-22T11:15:07.425Z,3.50
2018-06-22T11:20:11.254Z,3.37
2018-06-22T11:25:15.338Z,3.53
2018-06-22T11:30:19.478Z,2.90
2018-06-22T11:35:23.340Z,3.33
2018-06-22T11:40:27.434Z,2.83
2018-06-22T11:45:31.261Z,3.23
2018-06-22T11:50:35.093Z,2.70
2018-06-22T11:55:39.258Z,2.70
2018-06-22T12:00:43.434Z,2.53
2018-06-22T12:05:47.259Z,2.40
2018-06-22T12:10:51.329Z,2.43
2018-06-22T12:15:55.205Z,2.27
2018-06-22T12:20:59.353Z,2.37
2018-06-22T12:26:03.204Z,2.70
2018-06-22T12:31:07.069Z,2.63
2018-06-22T12:36:10.958Z,3.30
2018-06-22T12:41:14.796Z,3.50
2018-06-22T12:46:18.866Z,3.57
2018-06-22T12:51:22.688Z,2.53
2018-06-22T12:56:26.522Z,2.50
2018-06-22T13:01:30.595Z,2.57
2018-06-22T13:06:34.416Z,2.67
2018-06-22T13:11:38.268Z,2.77
2018-06-22T13:16:42.093Z,2.20
2018-06-22T13:21:50.131Z,2.73
2018-06-22T13:26:53.993Z,2.50
2018-06-22T13:31:58.077Z,3.00
2018-06-22T13:37:01.916Z,2.30
2018-06-22T13:42:06.233Z,2.87
2018-06-22T13:47:10.060Z,2.50
2018-06-22T13:52:13.922Z,2.47
2018-06-22T13:57:18.004Z,2.73
2018-06-22T14:02:21.808Z,2.57
2018-06-22T14:07:25.885Z,2.70
2018-06-22T14:12:29.951Z,2.50
2018-06-22T14:17:34.726Z,2.90
2018-06-22T14:22:38.557Z,3.03
2018-06-22T14:27:42.414Z,2.43
2018-06-22T14:32:46.297Z,2.53
2018-06-22T14:37:50.117Z,2.40
2018-06-22T14:42:55.605Z,2.67
2018-06-22T14:47:59.406Z,3.23
2018-06-22T14:53:03.233Z,2.53
2018-06-22T14:58:12.342Z,2.50
2018-06-22T15:03:21.454Z,1.82
2018-06-22T15:08:25.272Z,2.37
2018-06-22T15:13:29.169Z,2.27
2018-06-22T15:18:32.993Z,2.97
2018-06-22T15:23:37.059Z,2.87
2018-06-22T15:28:41.133Z,2.37
2018-06-22T15:33:50.522Z,2.90
2018-06-22T15:38:59.785Z,2.87
2018-06-22T15:44:09.096Z,2.20
2018-06-22T15:49:18.881Z,1.95
2018-06-22T15:54:28.141Z,2.40
2018-06-22T15:59:31.978Z,2.17
2018-06-22T16:04:35.830Z,2.10
2018-06-22T16:09:45.221Z,2.30
2018-06-22T16:14:54.225Z,1.70
2018-06-22T16:20:03.721Z,2.10
2018-06-22T16:25:13.172Z,2.17
2018-06-22T16:30:17.229Z,1.63
2018-06-22T16:35:21.834Z,1.93
2018-06-22T16:40:25.803Z,2.00
2018-06-22T16:45:29.648Z,1.80
2018-06-22T16:50:33.826Z,2.07
2018-06-22T16:55:37.657Z,2.00
2018-06-22T17:00:41.493Z,2.23
2018-06-22T17:05:45.401Z,2.10
2018-06-22T17:11:58.560Z,2.50
2018-06-22T17:17:07.906Z,1.90
2018-06-22T17:22:11.726Z,1.63
2018-06-22T17:27:15.585Z,2.10
2018-06-22T17:32:19.441Z,2.30
2018-06-22T17:37:23.512Z,1.93
2018-06-22T17:42:27.605Z,2.00
2018-06-22T17:47:31.729Z,2.20
2018-06-22T17:52:35.586Z,2.10
2018-06-22T17:57:39.649Z,1.90
2018-06-22T18:02:49.012Z,1.93
2018-06-22T18:07:52.913Z,1.93
2018-06-22T18:12:58.304Z,2.43
2018-06-22T18:18:02.001Z,2.30
2018-06-22T18:23:05.901Z,1.93
2018-06-22T18:28:09.637Z,2.10
2018-06-22T18:33:13.490Z,1.80
2018-06-22T18:38:17.296Z,2.20
2018-06-22T18:43:26.653Z,2.53
2018-06-22T18:48:30.731Z,2.40
2018-06-22T18:53:40.082Z,2.50
2018-06-22T18:58:49.269Z,2.10
2018-06-22T19:03:53.352Z,2.10
2018-06-22T19:08:57.237Z,2.27
2018-06-22T19:14:01.081Z,2.40
2018-06-22T19:19:04.906Z,2.50
2018-06-22T19:24:08.717Z,2.23
2018-06-22T19:29:12.553Z,2.37
2018-06-22T19:34:19.109Z,2.03
2018-06-22T19:39:22.941Z,2.13
2018-06-22T19:44:32.181Z,2.50
2018-06-22T19:50:39.084Z,2.40
2018-06-22T19:55:43.219Z,2.20
2018-06-22T20:00:47.381Z,2.23
2018-06-22T20:05:51.288Z,2.23
2018-06-22T20:10:55.369Z,2.47
2018-06-22T20:15:59.184Z,2.30
2018-06-22T20:21:03.357Z,2.70
2018-06-22T20:26:07.273Z,2.20
2018-06-22T20:31:15.327Z,2.43
2018-06-22T20:36:24.839Z,2.90
2018-06-22T20:41:34.131Z,2.40
2018-06-22T20:46:43.293Z,2.67
2018-06-22T20:51:47.378Z,2.73
2018-06-22T20:56:51.197Z,2.43
2018-06-22T21:01:55.013Z,2.57
2018-06-22T21:06:58.854Z,2.97
2018-06-22T21:12:02.667Z,3.33
2018-06-22T21:17:06.497Z,2.90
2018-06-22T21:22:12.301Z,3.33
2018-06-22T21:27:21.460Z,3.40
2018-06-22T21:32:30.796Z,3.67
2018-06-22T21:37:40.301Z,3.63
2018-06-22T21:42:44.117Z,4.03
2018-06-22T21:47:47.921Z,3.70
2018-06-22T21:52:51.856Z,3.67
2018-06-22T21:57:55.922Z,3.80
2018-06-22T22:03:00.645Z,5.03
2018-06-22T22:08:04.510Z,3.80
2018-06-22T22:13:08.574Z,4.47
2018-06-22T22:18:12.396Z,4.20
2018-06-22T22:23:16.220Z,4.43
2018-06-22T22:28:20.295Z,4.80
2018-06-22T22:33:24.137Z,4.43
2018-06-22T22:38:28.191Z,4.50
2018-06-22T22:43:32.015Z,4.43
2018-06-22T22:48:36.069Z,5.40
2018-06-22T22:53:39.900Z,5.60
2018-06-22T22:58:43.732Z,5.87
2018-06-22T23:03:47.557Z,6.40
2018-06-22T23:08:51.649Z,5.37
2018-06-22T23:13:55.481Z,5.03
2018-06-22T23:18:59.577Z,4.50
2018-06-22T23:24:03.401Z,4.67
2018-06-22T23:29:07.217Z,4.20
2018-06-22T23:34:11.065Z,4.53
2018-06-22T23:39:15.193Z,4.73
2018-06-22T23:44:19.190Z,4.90
2018-06-22T23:49:22.999Z,4.60
2018-06-22T23:54:27.065Z,6.03
2018-06-22T23:59:30.917Z,5.67
